M I D A S
Marine Information and Data Acquisition System
Tripno 1031 of the Zeeleeuw from 2006-02-15 08:21:39 to 2006-02-15 13:48:44
Back to CruiseResearch ActivitiesStationsMapUnderway DataData graphs

EquipmentUnitsComments
TimeDGPSUTC
LatitudeDGPSDM.mWGS84
LongitudeDGPSDM.mWGS84
SpeedMeteo Stationm/sRelative wind speed
DirectionMeteo StationdegRelative wind direction
TemperatureMeteo Stationdeg CelciusAir temperature
PressureMeteo StationPaAtmospheric pressure
HumidityMeteo Station%Relative humidity
Missing or incorrect values are displayed as -999
Metereological data collected by the RV Zeeleeuw from 2006-02-15 08:09:40 to 2006-02-15 13:59:57
Time Latitude Longitude Speed Direction Temperature Pressure Humidity
2006-02-15 08:10 51°13.61 2°56.052 -999 134 6.7 99360 -999
2006-02-15 08:11 51°13.634 2°55.964 -999 105 6.7 99350 -999
2006-02-15 08:12 51°13.663 2°55.87 -999 133 6.7 99370 -999
2006-02-15 08:13 51°13.682 2°55.784 -999 122 6.7 99350 -999
2006-02-15 08:14 51°13.699 2°55.779 -999 206 6.7 99350 -999
2006-02-15 08:15 51°13.71 2°55.775 -999 204 6.8 99360 -999
2006-02-15 08:16 51°13.722 2°55.75 -999 254 6.8 99350 -999
2006-02-15 08:17 51°13.819 2°55.647 -999 88 6.8 99340 -999
2006-02-15 08:18 51°13.96 2°55.541 -999 204 6.8 99350 -999
2006-02-15 08:19 51°14.092 2°55.443 -999 284 6.8 99340 -999
2006-02-15 08:20 51°14.232 2°55.311 -999 291 6.8 99340 -999
2006-02-15 08:21 51°14.341 2°55.118 -999 304 6.8 99340 -999
2006-02-15 08:22 51°14.456 2°54.891 -999 307 6.8 99300 -999
2006-02-15 08:23 51°14.487 2°54.567 -999 318 6.7 99290 -999
2006-02-15 08:24 51°14.421 2°54.251 -999 339 6.8 99340 -999
2006-02-15 08:25 51°14.312 2°53.961 -999 335 6.8 99270 -999
2006-02-15 08:26 51°14.211 2°53.656 -999 340 6.8 99280 -999
2006-02-15 08:27 51°14.102 2°53.353 -999 336 6.7 99280 -999
2006-02-15 08:28 51°13.991 2°53.05 -999 349 6.8 99260 -999
2006-02-15 08:29 51°13.886 2°52.742 -999 339 6.8 99270 -999
2006-02-15 08:30 51°13.773 2°52.441 -999 343 6.8 99260 -999
2006-02-15 08:31 51°13.653 2°52.147 -999 340 6.8 99270 -999
2006-02-15 08:32 51°13.533 2°51.854 -999 344 6.7 99280 -999
2006-02-15 08:33 51°13.414 2°51.559 -999 345 6.8 99250 -999
2006-02-15 08:34 51°13.297 2°51.263 -999 342 6.8 99240 -999
2006-02-15 08:35 51°13.178 2°50.97 -999 347 6.7 99270 -999
2006-02-15 08:36 51°13.061 2°50.672 -999 346 6.7 99270 -999
2006-02-15 08:37 51°12.941 2°50.379 -999 354 6.8 99270 -999
2006-02-15 08:38 51°12.823 2°50.087 -999 348 6.9 99250 -999
2006-02-15 08:39 51°12.706 2°49.79 -999 345 6.8 99270 -999
2006-02-15 08:40 51°12.597 2°49.484 -999 340 6.8 99270 -999
2006-02-15 08:41 51°12.495 2°49.174 -999 344 6.8 99250 -999
2006-02-15 08:42 51°12.403 2°48.855 -999 340 6.9 99250 -999
2006-02-15 08:43 51°12.308 2°48.538 -999 342 7 99250 -999
2006-02-15 08:44 51°12.213 2°48.222 -999 347 7.1 99230 -999
2006-02-15 08:45 51°12.121 2°47.902 -999 341 7 99260 -999
2006-02-15 08:46 51°12.026 2°47.576 -999 346 7.1 99240 -999
2006-02-15 08:47 51°11.937 2°47.261 -999 343 7.1 99250 -999
2006-02-15 08:48 51°11.851 2°46.937 -999 336 7.2 99260 -999
2006-02-15 08:49 51°11.778 2°46.604 -999 345 7.1 99270 -999
2006-02-15 08:50 51°11.703 2°46.271 -999 339 7.2 99250 -999
2006-02-15 08:51 51°11.627 2°45.939 -999 342 7.3 99270 -999
2006-02-15 08:52 51°11.552 2°45.605 -999 347 7.3 99270 -999
2006-02-15 08:53 51°11.479 2°45.271 -999 343 7.4 99250 -999
2006-02-15 08:54 51°11.403 2°44.94 -999 347 7.5 99270 -999
2006-02-15 08:55 51°11.332 2°44.606 -999 345 7.5 99280 -999
2006-02-15 08:56 51°11.276 2°44.266 -999 347 7.5 99270 -999
2006-02-15 08:57 51°11.222 2°43.925 -999 347 7.5 99280 -999
2006-02-15 08:58 51°11.167 2°43.59 -999 349 7.6 99270 -999
2006-02-15 08:59 51°11.112 2°43.253 -999 349 7.6 99250 -999
2006-02-15 09:00 51°11.06 2°42.915 -999 352 7.5 99280 -999
2006-02-15 09:01 51°11.006 2°42.578 -999 350 7.5 99280 -999
2006-02-15 09:02 51°10.953 2°42.236 -999 347 7.4 99270 -999
2006-02-15 09:03 51°10.901 2°41.907 -999 348 7.5 99270 -999
2006-02-15 09:04 51°10.85 2°41.573 -999 348 7.5 99260 -999
2006-02-15 09:05 51°10.799 2°41.238 -999 352 7.5 99280 -999
2006-02-15 09:06 51°10.75 2°40.902 -999 352 7.5 99280 -999
2006-02-15 09:07 51°10.701 2°40.565 -999 353 7.5 99270 -999
2006-02-15 09:08 51°10.65 2°40.231 -999 357 7.7 99270 -999
2006-02-15 09:09 51°10.595 2°39.899 -999 351 7.7 99280 -999
2006-02-15 09:10 51°10.54 2°39.564 -999 353 7.7 99280 -999
2006-02-15 09:11 51°10.485 2°39.232 -999 352 7.7 99260 -999
2006-02-15 09:12 51°10.432 2°38.898 -999 352 7.8 99270 -999
2006-02-15 09:13 51°10.377 2°38.567 -999 353 7.7 99250 -999
2006-02-15 09:14 51°10.326 2°38.234 -999 353 7.7 99260 -999
2006-02-15 09:15 51°10.275 2°37.901 -999 353 7.7 99270 -999
2006-02-15 09:16 51°10.225 2°37.568 -999 359 7.8 99260 -999
2006-02-15 09:17 51°10.17 2°37.234 -999 355 7.8 99270 -999
2006-02-15 09:18 51°10.116 2°36.899 -999 357 7.7 99250 -999
2006-02-15 09:19 51°10.066 2°36.565 -999 353 7.7 99280 -999
2006-02-15 09:20 51°10.056 2°36.226 -999 344 7.6 99280 -999
2006-02-15 09:21 51°10.097 2°35.899 -999 328 7.7 99260 -999
2006-02-15 09:22 51°10.198 2°35.624 -999 309 7.6 99250 -999
2006-02-15 09:23 51°10.38 2°35.504 -999 267 7.5 99290 -999
2006-02-15 09:24 51°10.574 2°35.576 -999 249 7.5 99320 -999
2006-02-15 09:25 51°10.743 2°35.754 -999 247 7.4 99350 -999
2006-02-15 09:26 51°10.914 2°35.931 -999 243 7.4 99360 -999
2006-02-15 09:27 51°11.087 2°36.102 -999 236 7.3 99350 -999
2006-02-15 09:28 51°11.259 2°36.283 -999 247 7.3 99350 -999
2006-02-15 09:29 51°11.43 2°36.453 -999 231 7.3 99350 -999
2006-02-15 09:30 51°11.6 2°36.627 -999 260 7.3 99360 -999
2006-02-15 09:31 51°11.773 2°36.798 -999 249 7.3 99350 -999
2006-02-15 09:32 51°11.944 2°36.972 -999 247 7.3 99370 -999
2006-02-15 09:33 51°12.11 2°37.151 -999 243 7.4 99350 -999
2006-02-15 09:34 51°12.279 2°37.323 -999 241 7.4 99360 -999
2006-02-15 09:35 51°12.452 2°37.486 -999 235 7.4 99360 -999
2006-02-15 09:36 51°12.619 2°37.657 -999 257 7.3 99350 -999
2006-02-15 09:37 51°12.794 2°37.818 -999 248 7.3 99360 -999
2006-02-15 09:38 51°12.963 2°37.992 -999 252 7.3 99360 -999
2006-02-15 09:39 51°13.142 2°38.159 -999 236 7.2 99370 -999
2006-02-15 09:40 51°13.311 2°38.33 -999 242 7.2 99360 -999
2006-02-15 09:41 51°13.483 2°38.51 -999 256 7.1 99370 -999
2006-02-15 09:42 51°13.656 2°38.685 -999 255 7.2 99370 -999
2006-02-15 09:43 51°13.83 2°38.855 -999 251 7.2 99360 -999
2006-02-15 09:44 51°14.022 2°38.939 -999 262 7.1 99330 -999
2006-02-15 09:45 51°14.207 2°38.832 -999 295 7.1 99310 -999
2006-02-15 09:46 51°14.384 2°38.675 -999 304 7.2 99280 -999
2006-02-15 09:47 51°14.55 2°38.486 -999 313 7.1 99290 -999
2006-02-15 09:48 51°14.685 2°38.25 -999 313 7.1 99270 -999
2006-02-15 09:49 51°14.818 2°38.005 -999 314 7.2 99240 -999
2006-02-15 09:50 51°14.957 2°37.769 -999 233 7.1 99270 -999
2006-02-15 09:51 51°15.089 2°37.559 -999 309 7.1 99280 -999
2006-02-15 09:52 51°15.226 2°37.331 -999 314 7.1 99250 -999
2006-02-15 09:53 51°15.369 2°37.103 -999 227 7.1 99280 -999
2006-02-15 09:54 51°15.51 2°36.872 -999 311 7.1 99280 -999
2006-02-15 09:55 51°15.694 2°36.724 -999 281 7.1 99290 -999
2006-02-15 09:56 51°15.895 2°36.717 -999 269 7 99340 -999
2006-02-15 09:57 51°16.093 2°36.774 -999 259 7 99340 -999
2006-02-15 09:58 51°16.287 2°36.825 -999 268 7 99340 -999
2006-02-15 09:59 51°16.435 2°36.824 -999 268 6.9 99420 -999
2006-02-15 10:00 51°16.515 2°36.78 -999 257 7 99350 -999
2006-02-15 10:01 51°16.552 2°36.759 -999 267 6.9 99350 -999
2006-02-15 10:02 51°16.555 2°36.751 -999 291 6.9 99350 -999
2006-02-15 10:03 51°16.554 2°36.753 -999 276 6.9 99380 -999
2006-02-15 10:04 51°16.551 2°36.756 -999 273 7 99360 -999
2006-02-15 10:05 51°16.547 2°36.758 -999 263 7 99370 -999
2006-02-15 10:06 51°16.544 2°36.761 -999 270 6.9 99360 -999
2006-02-15 10:07 51°16.542 2°36.765 -999 266 7 99340 -999
2006-02-15 10:08 51°16.539 2°36.769 -999 261 7 99350 -999
2006-02-15 10:09 51°16.537 2°36.774 -999 270 7 99350 -999
2006-02-15 10:10 51°16.535 2°36.777 -999 267 6.9 99360 -999
2006-02-15 10:11 51°16.532 2°36.783 -999 272 6.9 99360 -999
2006-02-15 10:12 51°16.531 2°36.788 -999 268 6.9 99360 -999
2006-02-15 10:13 51°16.54 2°36.781 -999 277 6.9 99360 -999
2006-02-15 10:14 51°16.602 2°36.671 -999 309 6.9 99330 -999
2006-02-15 10:15 51°16.736 2°36.482 -999 303 7 99310 -999
2006-02-15 10:16 51°16.911 2°36.311 -999 295 7 99310 -999
2006-02-15 10:17 51°17.094 2°36.148 -999 290 7 99310 -999
2006-02-15 10:18 51°17.272 2°35.991 -999 308 7 99310 -999
2006-02-15 10:19 51°17.452 2°35.837 -999 296 7 99320 -999
2006-02-15 10:20 51°17.636 2°35.68 -999 299 7 99320 -999
2006-02-15 10:21 51°17.777 2°35.471 -999 228 7 99310 -999
2006-02-15 10:22 51°17.89 2°35.206 -999 319 7 99290 -999
2006-02-15 10:23 51°17.996 2°34.927 -999 317 7 99310 -999
2006-02-15 10:24 51°18.106 2°34.645 -999 317 7 99300 -999
2006-02-15 10:25 51°18.215 2°34.361 -999 323 6.9 99290 -999
2006-02-15 10:26 51°18.329 2°34.091 -999 322 6.9 99280 -999
2006-02-15 10:27 51°18.442 2°33.82 -999 316 6.9 99280 -999
2006-02-15 10:28 51°18.554 2°33.542 -999 41 6.9 99290 -999
2006-02-15 10:29 51°18.67 2°33.273 -999 320 6.9 99280 -999
2006-02-15 10:30 51°18.78 2°33.003 -999 316 6.9 99290 -999
2006-02-15 10:31 51°18.891 2°32.724 -999 316 6.9 99270 -999
2006-02-15 10:32 51°19 2°32.459 -999 319 6.8 99290 -999
2006-02-15 10:33 51°19.115 2°32.178 -999 319 6.9 99270 -999
2006-02-15 10:34 51°19.224 2°31.899 -999 318 6.8 99260 -999
2006-02-15 10:35 51°19.336 2°31.624 -999 317 6.8 99270 -999
2006-02-15 10:36 51°19.453 2°31.343 -999 320 6.8 99260 -999
2006-02-15 10:37 51°19.568 2°31.078 -999 318 6.8 99260 -999
2006-02-15 10:38 51°19.685 2°30.805 -999 320 6.9 99270 -999
2006-02-15 10:39 51°19.805 2°30.535 -999 319 6.9 99260 -999
2006-02-15 10:40 51°19.881 2°30.362 -999 314 6.9 99300 -999
2006-02-15 10:41 51°19.937 2°30.26 -999 297 6.9 99320 -999
2006-02-15 10:42 51°19.969 2°30.224 -999 297 6.9 99330 -999
2006-02-15 10:43 51°20.004 2°30.186 -999 307 6.9 99340 -999
2006-02-15 10:44 51°20.026 2°30.158 -999 299 6.9 99320 -999
2006-02-15 10:45 51°20.039 2°30.167 -999 292 6.9 99330 -999
2006-02-15 10:46 51°20.049 2°30.191 -999 277 6.9 99330 -999
2006-02-15 10:47 51°20.055 2°30.219 -999 264 6.9 99340 -999
2006-02-15 10:48 51°20.061 2°30.247 -999 259 6.9 99340 -999
2006-02-15 10:49 51°20.066 2°30.277 -999 257 6.9 99340 -999
2006-02-15 10:50 51°20.072 2°30.308 -999 261 7 99330 -999
2006-02-15 10:51 51°20.077 2°30.337 -999 263 7 99330 -999
2006-02-15 10:52 51°20.085 2°30.368 -999 260 7 99340 -999
2006-02-15 10:53 51°20.094 2°30.398 -999 260 7 99340 -999
2006-02-15 10:54 51°20.151 2°30.412 -999 255 7 99330 -999
2006-02-15 10:55 51°20.243 2°30.498 -999 202 7 99340 -999
2006-02-15 10:56 51°20.285 2°30.753 -999 136 7.1 99360 -999
2006-02-15 10:57 51°20.343 2°31.084 -999 147 7.1 99360 -999
2006-02-15 10:58 51°20.407 2°31.419 -999 151 7.1 99340 -999
2006-02-15 10:59 51°20.469 2°31.751 -999 142 7.1 99340 -999
2006-02-15 11:00 51°20.527 2°32.082 -999 161 7.1 99330 -999
2006-02-15 11:01 51°20.598 2°32.407 -999 148 7.1 99350 -999
2006-02-15 11:02 51°20.682 2°32.715 -999 158 7.1 99320 -999
2006-02-15 11:03 51°20.758 2°33.028 -999 151 7.1 99320 -999
2006-02-15 11:04 51°20.839 2°33.358 -999 162 7 99320 -999
2006-02-15 11:05 51°20.919 2°33.662 -999 171 7 99320 -999
2006-02-15 11:06 51°21.02 2°33.959 -999 199 7.2 99330 -999
2006-02-15 11:07 51°21.114 2°34.267 -999 137 7.3 99330 -999
2006-02-15 11:08 51°21.119 2°34.608 -999 123 7.2 99320 -999
2006-02-15 11:09 51°21.075 2°34.937 -999 117 7.1 99310 -999
2006-02-15 11:10 51°21.026 2°35.279 -999 113 7 99310 -999
2006-02-15 11:11 51°20.979 2°35.61 -999 129 7 99350 -999
2006-02-15 11:12 51°20.938 2°35.948 -999 121 6.9 99340 -999
2006-02-15 11:13 51°20.901 2°36.252 -999 114 6.9 99340 -999
2006-02-15 11:14 51°20.862 2°36.554 -999 123 6.8 99350 -999
2006-02-15 11:15 51°20.84 2°36.859 -999 130 6.8 99350 -999
2006-02-15 11:16 51°20.815 2°37.172 -999 131 6.8 99350 -999
2006-02-15 11:17 51°20.796 2°37.478 -999 132 6.8 99360 -999
2006-02-15 11:18 51°20.774 2°37.781 -999 134 6.9 99350 -999
2006-02-15 11:19 51°20.747 2°38.099 -999 127 6.8 99350 -999
2006-02-15 11:20 51°20.73 2°38.404 -999 145 6.8 99350 -999
2006-02-15 11:21 51°20.733 2°38.717 -999 140 6.7 99350 -999
2006-02-15 11:22 51°20.738 2°38.979 -999 225 6.8 99360 -999
2006-02-15 11:23 51°20.727 2°39.228 -999 120 6.8 99360 -999
2006-02-15 11:24 51°20.637 2°39.419 -999 76 6.7 99330 -999
2006-02-15 11:25 51°20.497 2°39.472 -999 35 6.7 99310 -999
2006-02-15 11:26 51°20.425 2°39.321 -999 338 6.7 99350 -999
2006-02-15 11:27 51°20.489 2°39.143 -999 323 6.7 99300 -999
2006-02-15 11:28 51°20.584 2°38.957 -999 305 6.7 99280 -999
2006-02-15 11:29 51°20.715 2°38.822 -999 302 6.7 99310 -999
2006-02-15 11:30 51°20.861 2°38.688 -999 299 6.8 99290 -999
2006-02-15 11:31 51°21.023 2°38.566 -999 289 6.8 99310 -999
2006-02-15 11:32 51°21.208 2°38.562 -999 261 6.8 99320 -999
2006-02-15 11:33 51°21.396 2°38.649 -999 242 6.8 99330 -999
2006-02-15 11:34 51°21.581 2°38.782 -999 246 6.8 99330 -999
2006-02-15 11:35 51°21.767 2°38.955 -999 245 6.8 99330 -999
2006-02-15 11:36 51°21.95 2°39.138 -999 232 6.8 99330 -999
2006-02-15 11:37 51°22.111 2°39.372 -999 224 6.8 99330 -999
2006-02-15 11:38 51°22.277 2°39.608 -999 234 6.8 99330 -999
2006-02-15 11:39 51°22.434 2°39.851 -999 223 6.7 99340 -999
2006-02-15 11:40 51°22.588 2°40.104 -999 212 6.7 99340 -999
2006-02-15 11:41 51°22.73 2°40.379 -999 203 6.8 99340 -999
2006-02-15 11:42 51°22.873 2°40.65 -999 220 6.8 99340 -999
2006-02-15 11:43 51°23.013 2°40.919 -999 200 6.8 99330 -999
2006-02-15 11:44 51°23.159 2°41.188 -999 201 6.8 99350 -999
2006-02-15 11:45 51°23.308 2°41.461 -999 213 6.8 99350 -999
2006-02-15 11:46 51°23.457 2°41.726 -999 203 6.8 99360 -999
2006-02-15 11:47 51°23.589 2°42.006 -999 200 6.8 99330 -999
2006-02-15 11:48 51°23.724 2°42.301 -999 207 7 99340 -999
2006-02-15 11:49 51°23.852 2°42.588 -999 223 7.2 99340 -999
2006-02-15 11:50 51°23.983 2°42.881 -999 188 7.3 99350 -999
2006-02-15 11:51 51°24.125 2°43.165 -999 225 7.4 99330 -999
2006-02-15 11:52 51°24.258 2°43.458 -999 190 7.2 99350 100
2006-02-15 11:53 51°24.379 2°43.754 -999 186 7.7 99350 -999
2006-02-15 11:54 51°24.506 2°44.06 -999 185 7.8 99350 100
2006-02-15 11:55 51°24.619 2°44.372 -999 184 7.9 99340 100
2006-02-15 11:56 51°24.728 2°44.685 -999 172 8 99340 100
2006-02-15 11:57 51°24.825 2°45.02 -999 162 7.7 99340 100
2006-02-15 11:58 51°24.934 2°45.341 -999 164 7.4 99340 100
2006-02-15 11:59 51°25.015 2°45.669 -999 159 7.2 99350 100
2006-02-15 12:00 51°25.105 2°46.006 -999 180 7.1 99360 100
2006-02-15 12:01 51°25.206 2°46.332 -999 179 7.1 99350 100
2006-02-15 12:02 51°25.302 2°46.663 -999 174 7.1 99360 100
2006-02-15 12:03 51°25.399 2°46.992 -999 161 7 99350 100
2006-02-15 12:04 51°25.505 2°47.308 -999 174 7 99350 100
2006-02-15 12:05 51°25.617 2°47.628 -999 169 7.2 99340 100
2006-02-15 12:06 51°25.723 2°47.941 -999 176 7.5 99350 100
2006-02-15 12:07 51°25.816 2°48.173 -999 209 7.4 99360 100
2006-02-15 12:08 51°25.893 2°48.293 -999 233 7.1 99370 100
2006-02-15 12:09 51°25.948 2°48.351 -999 250 7 99380 100
2006-02-15 12:10 51°25.983 2°48.395 -999 262 6.8 99340 100
2006-02-15 12:11 51°25.992 2°48.441 -999 263 6.8 99350 100
2006-02-15 12:12 51°26.004 2°48.491 -999 260 6.7 99350 100
2006-02-15 12:13 51°26.017 2°48.543 -999 264 6.7 99330 100
2006-02-15 12:14 51°26.031 2°48.593 -999 262 6.7 99350 100
2006-02-15 12:15 51°26.045 2°48.642 -999 265 6.7 99340 100
2006-02-15 12:16 51°26.06 2°48.691 -999 266 6.7 99350 100
2006-02-15 12:17 51°26.074 2°48.742 -999 261 6.7 99340 -999
2006-02-15 12:18 51°26.118 2°48.785 -999 241 6.7 99330 -999
2006-02-15 12:19 51°26.187 2°48.934 -999 138 6.7 99360 -999
2006-02-15 12:20 51°26.118 2°49.146 -999 69 6.7 99320 -999
2006-02-15 12:21 51°25.977 2°49.289 -999 55 6.6 99300 -999
2006-02-15 12:22 51°25.814 2°49.355 -999 51 6.5 99290 -999
2006-02-15 12:23 51°25.637 2°49.395 -999 48 6.5 99290 -999
2006-02-15 12:24 51°25.472 2°49.44 -999 56 6.4 99290 -999
2006-02-15 12:25 51°25.305 2°49.49 -999 55 6.4 99290 -999
2006-02-15 12:26 51°25.139 2°49.536 -999 46 6.4 99290 -999
2006-02-15 12:27 51°24.971 2°49.581 -999 45 6.4 99280 -999
2006-02-15 12:28 51°24.806 2°49.632 -999 53 6.5 99270 -999
2006-02-15 12:29 51°24.639 2°49.689 -999 52 6.5 99280 -999
2006-02-15 12:30 51°24.471 2°49.735 -999 46 6.5 99280 -999
2006-02-15 12:31 51°24.302 2°49.763 -999 51 6.5 99280 -999
2006-02-15 12:32 51°24.133 2°49.79 -999 49 6.4 99280 -999
2006-02-15 12:33 51°23.967 2°49.823 -999 42 6.4 99280 -999
2006-02-15 12:34 51°23.802 2°49.855 -999 52 6.4 99280 -999
2006-02-15 12:35 51°23.632 2°49.885 -999 49 6.4 99280 -999
2006-02-15 12:36 51°23.463 2°49.916 -999 44 6.4 99280 -999
2006-02-15 12:37 51°23.293 2°49.948 -999 49 6.5 99280 -999
2006-02-15 12:38 51°23.108 2°49.967 -999 44 6.5 99280 -999
2006-02-15 12:39 51°22.926 2°49.991 -999 44 6.5 99280 -999
2006-02-15 12:40 51°22.741 2°50.015 -999 52 6.5 99300 -999
2006-02-15 12:41 51°22.557 2°50.034 -999 50 6.5 99280 -999
2006-02-15 12:42 51°22.368 2°50.047 -999 45 6.5 99290 -999
2006-02-15 12:43 51°22.176 2°50.065 -999 41 6.5 99300 -999
2006-02-15 12:44 51°21.981 2°50.077 -999 44 6.4 99290 -999
2006-02-15 12:45 51°21.785 2°50.092 -999 41 6.4 99280 -999
2006-02-15 12:46 51°21.592 2°50.108 -999 41 6.4 99300 -999
2006-02-15 12:47 51°21.403 2°50.122 -999 41 6.4 99300 -999
2006-02-15 12:48 51°21.208 2°50.138 -999 37 6.4 99280 -999
2006-02-15 12:49 51°21.022 2°50.163 -999 44 6.4 99290 -999
2006-02-15 12:50 51°20.83 2°50.181 -999 39 6.4 99290 -999
2006-02-15 12:51 51°20.643 2°50.201 -999 45 6.4 99310 -999
2006-02-15 12:52 51°20.453 2°50.241 -999 44 6.4 99290 -999
2006-02-15 12:53 51°20.26 2°50.281 -999 45 6.5 99290 -999
2006-02-15 12:54 51°20.065 2°50.335 -999 50 6.5 99290 -999
2006-02-15 12:55 51°19.869 2°50.398 -999 48 6.5 99290 -999
2006-02-15 12:56 51°19.675 2°50.456 -999 48 6.5 99290 -999
2006-02-15 12:57 51°19.476 2°50.514 -999 48 6.5 99300 -999
2006-02-15 12:58 51°19.283 2°50.566 -999 47 6.6 99290 -999
2006-02-15 12:59 51°19.086 2°50.627 -999 50 6.5 99290 -999
2006-02-15 13:00 51°18.893 2°50.682 -999 52 6.6 99300 -999
2006-02-15 13:01 51°18.74 2°50.73 -999 59 6.6 99300 -999
2006-02-15 13:02 51°18.645 2°50.788 -999 57 6.6 99320 -999
2006-02-15 13:03 51°18.57 2°50.843 -999 52 6.6 99330 -999
2006-02-15 13:04 51°18.551 2°50.901 -999 80 6.6 99350 -999
2006-02-15 13:05 51°18.565 2°50.962 -999 95 6.6 99340 -999
2006-02-15 13:06 51°18.585 2°51.022 -999 108 6.7 99350 -999
2006-02-15 13:07 51°18.605 2°51.081 -999 117 6.6 99360 -999
2006-02-15 13:08 51°18.624 2°51.142 -999 110 6.7 99360 -999
2006-02-15 13:09 51°18.641 2°51.203 -999 114 6.7 99360 -999
2006-02-15 13:10 51°18.657 2°51.261 -999 100 6.7 99360 -999
2006-02-15 13:11 51°18.621 2°51.358 -999 69 6.7 99350 -999
2006-02-15 13:12 51°18.459 2°51.504 -999 62 6.7 99320 -999
2006-02-15 13:13 51°18.273 2°51.629 -999 57 6.7 99310 -999
2006-02-15 13:14 51°18.092 2°51.755 -999 59 6.6 99310 -999
2006-02-15 13:15 51°17.906 2°51.892 -999 55 6.6 99320 -999
2006-02-15 13:16 51°17.724 2°52.024 -999 61 6.6 99320 -999
2006-02-15 13:17 51°17.541 2°52.162 -999 57 6.6 99310 -999
2006-02-15 13:18 51°17.36 2°52.308 -999 56 6.6 99320 -999
2006-02-15 13:19 51°17.196 2°52.5 -999 67 6.6 99340 -999
2006-02-15 13:20 51°17.037 2°52.737 -999 73 6.5 99330 -999
2006-02-15 13:21 51°16.889 2°52.972 -999 71 6.5 99340 -999
2006-02-15 13:22 51°16.737 2°53.215 -999 72 6.5 99340 -999
2006-02-15 13:23 51°16.586 2°53.478 -999 68 6.5 99340 -999
2006-02-15 13:24 51°16.434 2°53.734 -999 59 6.4 99360 -999
2006-02-15 13:25 51°16.304 2°53.949 -999 74 6.4 99360 -999
2006-02-15 13:26 51°16.248 2°54.129 -999 133 6.4 99360 -999
2006-02-15 13:27 51°16.263 2°54.259 -999 145 6.4 99380 -999
2006-02-15 13:28 51°16.285 2°54.326 -999 135 6.6 99380 -999
2006-02-15 13:29 51°16.305 2°54.396 -999 120 6.7 99380 -999
2006-02-15 13:30 51°16.322 2°54.464 -999 109 6.7 99380 -999
2006-02-15 13:31 51°16.338 2°54.529 -999 101 6.7 99380 -999
2006-02-15 13:32 51°16.354 2°54.594 -999 97 6.6 99380 -999
2006-02-15 13:33 51°16.371 2°54.659 -999 91 6.6 99370 -999
2006-02-15 13:34 51°16.376 2°54.729 -999 66 6.6 99380 -999
2006-02-15 13:35 51°16.348 2°54.776 -999 23 6.6 99360 -999
2006-02-15 13:36 51°16.319 2°54.769 -999 9 6.6 99370 -999
2006-02-15 13:37 51°16.279 2°54.722 -999 18 6.7 99360 -999
2006-02-15 13:38 51°16.147 2°54.673 -999 29 6.7 99340 -999
2006-02-15 13:39 51°15.965 2°54.631 -999 28 6.8 99350 -999
2006-02-15 13:40 51°15.781 2°54.582 -999 30 6.8 99330 -999
2006-02-15 13:41 51°15.599 2°54.532 -999 30 6.9 99340 -999
2006-02-15 13:42 51°15.42 2°54.479 -999 26 6.9 99360 -999
2006-02-15 13:43 51°15.236 2°54.427 -999 30 6.9 99360 100
2006-02-15 13:44 51°15.052 2°54.402 -999 41 6.8 99350 -999
2006-02-15 13:45 51°14.872 2°54.515 -999 51 6.8 99350 -999
2006-02-15 13:46 51°14.693 2°54.68 -999 55 6.9 99340 -999
2006-02-15 13:47 51°14.521 2°54.854 -999 52 6.8 99360 -999
2006-02-15 13:48 51°14.364 2°55.077 -999 76 6.7 99350 -999
2006-02-15 13:49 51°14.247 2°55.296 -999 69 6.7 99380 -999
2006-02-15 13:50 51°14.126 2°55.414 -999 53 7.4 99380 -999
2006-02-15 13:51 51°14.013 2°55.498 -999 48 8.1 99380 -999
2006-02-15 13:52 51°13.917 2°55.568 -999 62 8.7 99380 100
2006-02-15 13:53 51°13.831 2°55.631 -999 43 9.2 99390 100
2006-02-15 13:54 51°13.765 2°55.704 -999 114 9.5 99390 100
2006-02-15 13:55 51°13.705 2°55.8 -999 90 9.7 99380 98
2006-02-15 13:56 51°13.659 2°55.907 -999 107 9.9 99390 96
2006-02-15 13:57 51°13.624 2°55.99 -999 111 10 99390 94
2006-02-15 13:58 51°13.607 2°56.055 -999 119 10.1 99390 93
2006-02-15 13:59 51°13.599 2°56.088 -999 131 10.1 99390 92